Gulfport, Florida
Current Conditions -  °F | °C
As of 3:53 PM on Monday 24 Nov 2014 (Local Time) from KSPG Reporting Station
Clear Clear  
Wind Chill: 78°   Ceiling: Unl
Heat Index: 80°   Visibility: 10mi
Dew Point: 72°   Wind: 10mph
Humidity: 81%   Direction: 220°SW
Pressure: 29.93"   Gusts: NA
Location:  27.75°N, 82.7°W
Report Text: KSPG 242053Z 22009KT 10SM CLR 26/22 A2993 RMK AO2 SLP134 T02560222 55000
Loading
Personal Weather Stations






























Interactive Weather Map New forecast layout! Learn more

10-Day Weather Forecast

Advertisements
Track Severe Weather on mobile